createdAt,value
2018-04-26T00:00:45.235Z,13.96
2018-04-26T00:01:44.418Z,13.91
2018-04-26T00:02:43.888Z,13.89
2018-04-26T00:03:43.846Z,13.83
2018-04-26T00:04:44.438Z,13.83
2018-04-26T00:05:44.754Z,13.84
2018-04-26T00:06:44.222Z,13.84
2018-04-26T00:07:43.917Z,13.79
2018-04-26T00:08:44.004Z,13.77
2018-04-26T00:09:44.027Z,13.73
2018-04-26T00:10:43.943Z,13.72
2018-04-26T00:11:44.562Z,13.74
2018-04-26T00:12:43.999Z,13.7
2018-04-26T00:13:43.882Z,13.73
2018-04-26T00:14:44.289Z,13.7
2018-04-26T00:15:44.058Z,13.73
2018-04-26T00:16:44.179Z,13.7
2018-04-26T00:17:43.842Z,13.69
2018-04-26T00:18:44.297Z,13.67
2018-04-26T00:19:43.860Z,13.66
2018-04-26T00:20:44.205Z,13.64
2018-04-26T00:21:43.835Z,13.63
2018-04-26T00:22:44.047Z,13.66
2018-04-26T00:23:44.044Z,13.59
2018-04-26T00:24:44.869Z,13.62
2018-04-26T00:25:43.997Z,13.62
2018-04-26T00:26:44.012Z,13.59
2018-04-26T00:27:44.121Z,13.5
2018-04-26T00:28:44.370Z,13.52
2018-04-26T00:29:43.930Z,13.5
2018-04-26T00:30:43.895Z,13.55
2018-04-26T00:31:43.908Z,13.59
2018-04-26T00:32:44.397Z,13.55
2018-04-26T00:33:44.611Z,13.52
2018-04-26T00:34:43.843Z,13.52
2018-04-26T00:35:44.259Z,13.42
2018-04-26T00:36:43.901Z,13.52
2018-04-26T00:37:43.899Z,13.57
2018-04-26T00:38:44.455Z,13.59
2018-04-26T00:39:43.957Z,13.57
2018-04-26T00:40:43.889Z,13.59
2018-04-26T00:41:45.170Z,13.59
2018-04-26T00:42:45.587Z,13.6
2018-04-26T00:43:44.099Z,13.56
2018-04-26T00:44:43.940Z,13.53
2018-04-26T00:45:44.067Z,13.56
2018-04-26T00:46:46.499Z,13.56
2018-04-26T00:47:45.831Z,13.59
2018-04-26T00:48:43.947Z,13.59
2018-04-26T00:49:44.115Z,13.6
2018-04-26T00:50:43.862Z,13.56
2018-04-26T00:51:44.530Z,13.52
2018-04-26T00:52:45.070Z,13.49
2018-04-26T00:53:44.330Z,13.49
2018-04-26T00:54:44.114Z,13.52
2018-04-26T00:55:43.923Z,13.52
2018-04-26T00:56:44.250Z,13.55
2018-04-26T00:57:44.046Z,13.52
2018-04-26T00:58:44.468Z,13.5
2018-04-26T00:59:44.712Z,13.56
2018-04-26T01:00:44.018Z,13.55
2018-04-26T01:01:44.717Z,13.49
2018-04-26T01:02:43.878Z,13.45
2018-04-26T01:03:45.351Z,13.45
2018-04-26T01:04:43.880Z,13.47
2018-04-26T01:05:44.516Z,13.46
2018-04-26T01:06:43.870Z,13.43
2018-04-26T01:07:44.106Z,13.47
2018-04-26T01:08:44.435Z,13.5
2018-04-26T01:09:43.894Z,13.47
2018-04-26T01:10:43.921Z,13.45
2018-04-26T01:11:50.314Z,13.45
2018-04-26T01:12:44.872Z,13.45
2018-04-26T01:13:43.956Z,13.47
2018-04-26T01:14:44.078Z,13.5
2018-04-26T01:15:43.917Z,13.53
2018-04-26T01:16:43.954Z,13.5
2018-04-26T01:17:44.054Z,13.52
2018-04-26T01:18:44.044Z,13.52
2018-04-26T01:19:44.077Z,13.49
2018-04-26T01:20:44.157Z,13.56
2018-04-26T01:21:44.222Z,13.5
2018-04-26T01:22:44.322Z,13.49
2018-04-26T01:23:44.638Z,13.52
2018-04-26T01:24:44.547Z,13.55
2018-04-26T01:25:43.998Z,13.55
2018-04-26T01:26:43.947Z,13.56
2018-04-26T01:27:44.045Z,13.53
2018-04-26T01:28:44.300Z,13.53
2018-04-26T01:30:02.039Z,13.56
2018-04-26T01:30:43.911Z,13.53
2018-04-26T01:31:44.701Z,13.49
2018-04-26T01:32:44.778Z,13.49
2018-04-26T01:33:44.701Z,13.49
2018-04-26T01:34:45.021Z,13.46
2018-04-26T01:35:46.979Z,13.45
2018-04-26T01:36:43.896Z,13.42
2018-04-26T01:37:43.917Z,13.43
2018-04-26T01:38:51.906Z,13.42
2018-04-26T01:39:45.265Z,13.42
2018-04-26T01:40:46.119Z,13.43
2018-04-26T01:41:43.940Z,13.45
2018-04-26T01:42:43.988Z,13.5
2018-04-26T01:43:44.669Z,13.47
2018-04-26T01:44:44.358Z,13.39
2018-04-26T01:45:45.096Z,13.38
2018-04-26T01:46:44.696Z,13.39
2018-04-26T01:47:43.996Z,13.38
2018-04-26T01:48:43.867Z,13.34
2018-04-26T01:49:44.049Z,13.35
2018-04-26T01:50:45.664Z,13.36
2018-04-26T01:51:44.211Z,13.34
2018-04-26T01:52:44.047Z,13.36
2018-04-26T01:53:44.281Z,13.35
2018-04-26T01:54:44.556Z,13.36
2018-04-26T01:55:45.506Z,13.36
2018-04-26T01:56:43.938Z,13.39
2018-04-26T01:57:43.898Z,13.41
2018-04-26T01:58:44.230Z,13.42
2018-04-26T01:59:44.473Z,13.36
2018-04-26T02:00:45.221Z,13.39
2018-04-26T02:01:47.043Z,13.41
2018-04-26T02:02:44.098Z,13.39
2018-04-26T02:03:44.312Z,13.38
2018-04-26T02:04:44.408Z,13.39
2018-04-26T02:05:44.844Z,13.41
2018-04-26T02:06:47.412Z,13.43
2018-04-26T02:07:43.918Z,13.45
2018-04-26T02:08:43.934Z,13.43
2018-04-26T02:09:43.960Z,13.42
2018-04-26T02:10:45.985Z,13.43
2018-04-26T02:11:45.372Z,13.42
2018-04-26T02:12:47.287Z,13.39
2018-04-26T02:13:44.111Z,13.41
2018-04-26T02:14:44.291Z,13.36
2018-04-26T02:15:45.076Z,13.39
2018-04-26T02:16:44.909Z,13.35
2018-04-26T02:17:43.919Z,13.36
2018-04-26T02:18:44.053Z,13.38
2018-04-26T02:19:45.340Z,13.35
2018-04-26T02:20:44.096Z,13.39
2018-04-26T02:21:43.954Z,13.39
2018-04-26T02:22:43.947Z,13.42
2018-04-26T02:23:44.287Z,13.39
2018-04-26T02:24:44.957Z,13.38
2018-04-26T02:25:44.171Z,13.38
2018-04-26T02:26:43.943Z,13.36
2018-04-26T02:27:44.091Z,13.32
2018-04-26T02:28:44.386Z,13.36
2018-04-26T02:29:44.580Z,13.32
2018-04-26T02:30:44.073Z,13.29
2018-04-26T02:31:44.138Z,13.29
2018-04-26T02:32:44.247Z,13.27
2018-04-26T02:33:44.667Z,13.27
2018-04-26T02:34:46.971Z,13.31
2018-04-26T02:35:44.315Z,13.25
2018-04-26T02:36:44.185Z,13.28
2018-04-26T02:37:44.334Z,13.24
2018-04-26T02:38:44.538Z,13.19
2018-04-26T02:39:45.794Z,13.21
2018-04-26T02:40:44.253Z,13.14
2018-04-26T02:41:44.310Z,13.15
2018-04-26T02:42:44.671Z,13.18
2018-04-26T02:43:44.580Z,13.15
2018-04-26T02:44:44.405Z,13.13
2018-04-26T02:45:57.520Z,13.15
2018-04-26T02:46:43.954Z,13.13
2018-04-26T02:47:44.118Z,13.11
2018-04-26T02:48:44.059Z,13.06
2018-04-26T02:49:45.126Z,13.07
2018-04-26T02:50:44.333Z,13.04
2018-04-26T02:51:44.067Z,13.07
2018-04-26T02:52:44.014Z,13.07
2018-04-26T02:53:44.545Z,13.06
2018-04-26T02:54:44.453Z,13.11
2018-04-26T02:55:44.763Z,13.13
2018-04-26T02:56:44.902Z,13.14
2018-04-26T02:57:44.570Z,13.07
2018-04-26T02:58:44.434Z,13.03
2018-04-26T02:59:44.249Z,13.08
2018-04-26T03:00:46.128Z,13.04
2018-04-26T03:01:44.296Z,13.06
2018-04-26T03:02:44.416Z,13.08
2018-04-26T03:03:44.505Z,13.04
2018-04-26T03:04:45.438Z,13
2018-04-26T03:05:44.266Z,12.91
2018-04-26T03:06:44.067Z,12.94
2018-04-26T03:07:44.435Z,12.96
2018-04-26T03:08:45.371Z,12.97
2018-04-26T03:09:44.758Z,12.91
2018-04-26T03:10:46.095Z,12.87
2018-04-26T03:11:43.984Z,12.93
2018-04-26T03:12:44.519Z,12.88
2018-04-26T03:13:44.911Z,12.91
2018-04-26T03:14:44.580Z,12.9
2018-04-26T03:15:43.972Z,12.86
2018-04-26T03:16:44.496Z,12.79
2018-04-26T03:17:44.041Z,12.77
2018-04-26T03:18:44.711Z,12.8
2018-04-26T03:19:44.813Z,12.8
2018-04-26T03:20:44.553Z,12.87
2018-04-26T03:21:44.035Z,12.88
2018-04-26T03:22:44.052Z,12.88
2018-04-26T03:23:45.981Z,12.86
2018-04-26T03:24:44.402Z,12.77
2018-04-26T03:25:43.967Z,12.73
2018-04-26T03:26:44.075Z,12.76
2018-04-26T03:27:44.070Z,12.69
2018-04-26T03:28:44.483Z,12.72
2018-04-26T03:29:44.008Z,12.69
2018-04-26T03:30:44.694Z,12.62
2018-04-26T03:31:46.451Z,12.55
2018-04-26T03:32:44.051Z,12.57
2018-04-26T03:33:43.943Z,12.6
2018-04-26T03:34:44.825Z,12.57
2018-04-26T03:35:44.520Z,12.59
2018-04-26T03:36:44.477Z,12.56
2018-04-26T03:37:45.365Z,12.55
2018-04-26T03:38:44.431Z,12.51
2018-04-26T03:39:44.252Z,12.53
2018-04-26T03:40:44.034Z,12.48
2018-04-26T03:41:44.967Z,12.52
2018-04-26T03:42:44.468Z,12.48
2018-04-26T03:43:44.097Z,12.46
2018-04-26T03:44:44.035Z,12.45
2018-04-26T03:45:44.488Z,12.44
2018-04-26T03:46:44.499Z,12.45
2018-04-26T03:47:44.911Z,12.44
2018-04-26T03:48:44.415Z,12.41
2018-04-26T03:49:44.052Z,12.44
2018-04-26T03:50:44.215Z,12.44
2018-04-26T03:51:44.221Z,12.42
2018-04-26T03:52:44.629Z,12.39
2018-04-26T03:53:45.464Z,12.39
2018-04-26T03:54:44.103Z,12.38
2018-04-26T03:55:44.071Z,12.42
2018-04-26T03:56:44.288Z,12.41
2018-04-26T03:57:44.563Z,12.39
2018-04-26T03:58:44.227Z,12.41
2018-04-26T03:59:44.407Z,12.39
2018-04-26T04:00:44.385Z,12.41
2018-04-26T04:01:44.496Z,12.32
2018-04-26T04:03:05.086Z,12.27
2018-04-26T04:03:48.635Z,12.34
2018-04-26T04:04:44.525Z,12.35
2018-04-26T04:05:44.316Z,12.34
2018-04-26T04:06:44.258Z,12.37
2018-04-26T04:07:44.535Z,12.41
2018-04-26T04:08:44.151Z,12.44
2018-04-26T04:09:44.115Z,12.42
2018-04-26T04:10:44.192Z,12.44
2018-04-26T04:11:45.792Z,12.48
2018-04-26T04:12:43.967Z,12.48
2018-04-26T04:13:46.530Z,12.51
2018-04-26T04:14:53.912Z,12.49
2018-04-26T04:15:44.227Z,12.51
2018-04-26T04:16:44.032Z,12.49
2018-04-26T04:17:44.737Z,12.49
2018-04-26T04:18:44.612Z,12.45
2018-04-26T04:19:46.399Z,12.34
2018-04-26T04:20:44.005Z,12.29
2018-04-26T04:22:06.408Z,12.21
2018-04-26T04:22:44.837Z,12.17
2018-04-26T04:23:44.141Z,12.18
2018-04-26T04:24:44.036Z,12.13
2018-04-26T04:25:44.307Z,12.04
2018-04-26T04:26:44.090Z,12.08
2018-04-26T04:27:44.183Z,12.14
2018-04-26T04:28:44.579Z,12.13
2018-04-26T04:29:46.741Z,12.17
2018-04-26T04:30:44.387Z,12.2
2018-04-26T04:31:44.607Z,12.14
2018-04-26T04:32:44.904Z,12.13
2018-04-26T04:33:44.007Z,12.11
2018-04-26T04:34:44.237Z,12.18
2018-04-26T04:35:44.418Z,12.18
2018-04-26T04:36:44.084Z,12.2
2018-04-26T04:37:45.548Z,12.18
2018-04-26T04:38:43.947Z,12.2
2018-04-26T04:39:44.046Z,12.24
2018-04-26T04:40:44.464Z,12.2
2018-04-26T04:41:44.570Z,12.21
2018-04-26T04:42:45.628Z,12.1
2018-04-26T04:43:45.804Z,12.11
2018-04-26T04:44:43.976Z,12.08
2018-04-26T04:45:44.902Z,12.07
2018-04-26T04:46:44.123Z,12.08
2018-04-26T04:48:02.337Z,12.07
2018-04-26T04:48:45.123Z,12.04
2018-04-26T04:49:49.839Z,11.98
2018-04-26T04:50:44.524Z,12.05
2018-04-26T04:51:45.453Z,12.11
2018-04-26T04:52:47.193Z,12.14
2018-04-26T04:53:45.291Z,12.1
2018-04-26T04:54:44.094Z,12.08
2018-04-26T04:55:44.175Z,12.1
2018-04-26T04:56:44.041Z,12
2018-04-26T04:57:44.365Z,12.01
2018-04-26T04:58:48.510Z,11.97
2018-04-26T04:59:44.698Z,12
2018-04-26T05:00:44.245Z,12
2018-04-26T05:01:44.392Z,11.96
2018-04-26T05:02:44.808Z,11.98
2018-04-26T05:03:44.194Z,11.96
2018-04-26T05:04:45.536Z,11.94
2018-04-26T05:05:44.418Z,11.96
2018-04-26T05:06:44.381Z,11.93
2018-04-26T05:07:44.127Z,11.8
2018-04-26T05:08:44.082Z,11.8
2018-04-26T05:09:44.649Z,11.75
2018-04-26T05:10:44.966Z,11.79
2018-04-26T05:11:44.000Z,11.8
2018-04-26T05:12:44.115Z,11.83
2018-04-26T05:13:44.954Z,11.82
2018-04-26T05:14:47.961Z,11.84
2018-04-26T05:15:44.389Z,11.83
2018-04-26T05:16:43.990Z,11.92
2018-04-26T05:17:44.181Z,11.89
2018-04-26T05:18:44.325Z,11.87
2018-04-26T05:19:44.879Z,11.86
2018-04-26T05:20:43.979Z,11.84
2018-04-26T05:21:44.343Z,11.83
2018-04-26T05:22:44.642Z,11.83
2018-04-26T05:23:44.303Z,11.87
2018-04-26T05:24:44.854Z,11.89
2018-04-26T05:25:44.932Z,11.89
2018-04-26T05:26:44.121Z,11.9
2018-04-26T05:27:44.776Z,11.97
2018-04-26T05:28:45.090Z,11.97
2018-04-26T05:29:44.324Z,11.97
2018-04-26T05:30:45.106Z,12.04
2018-04-26T05:32:04.095Z,12.04
2018-04-26T05:32:44.295Z,12.07
2018-04-26T05:33:45.959Z,12.04
2018-04-26T05:34:44.935Z,12
2018-04-26T05:35:44.518Z,12.04
2018-04-26T05:36:44.090Z,11.98
2018-04-26T05:37:44.367Z,12
2018-04-26T05:38:44.653Z,11.92
2018-04-26T05:39:59.707Z,11.94
2018-04-26T05:40:44.450Z,11.93
2018-04-26T05:41:43.975Z,11.93
2018-04-26T05:42:44.405Z,11.94
2018-04-26T05:43:45.270Z,11.87
2018-04-26T05:44:47.535Z,11.84
2018-04-26T05:45:49.221Z,11.89
2018-04-26T05:46:44.605Z,11.86
2018-04-26T05:47:44.121Z,11.83
2018-04-26T05:48:55.801Z,11.86
2018-04-26T05:49:45.946Z,11.8
2018-04-26T05:50:45.032Z,11.84
2018-04-26T05:51:44.275Z,11.87
2018-04-26T05:52:44.043Z,11.8
2018-04-26T05:53:44.739Z,11.82
2018-04-26T05:54:44.854Z,11.86
2018-04-26T05:55:44.289Z,11.89
2018-04-26T05:56:44.010Z,11.92
2018-04-26T05:57:45.012Z,11.94
2018-04-26T05:58:44.035Z,11.9
2018-04-26T05:59:45.220Z,11.96
2018-04-26T06:00:45.625Z,11.97
2018-04-26T06:01:44.131Z,12.01
2018-04-26T06:02:44.019Z,11.98
2018-04-26T06:03:47.511Z,12.01
2018-04-26T06:04:44.740Z,11.93
2018-04-26T06:05:44.101Z,11.96
2018-04-26T06:06:44.369Z,11.93
2018-04-26T06:07:45.159Z,11.96
2018-04-26T06:08:45.674Z,11.94
2018-04-26T06:09:44.274Z,12
2018-04-26T06:10:44.284Z,11.97
2018-04-26T06:11:45.076Z,11.98
2018-04-26T06:12:44.519Z,11.97
2018-04-26T06:13:44.305Z,11.97
2018-04-26T06:14:44.695Z,11.97
2018-04-26T06:15:45.133Z,12.01
2018-04-26T06:16:47.891Z,12.01
2018-04-26T06:17:47.583Z,12.01
2018-04-26T06:18:44.517Z,12.03
2018-04-26T06:19:46.461Z,12.03
2018-04-26T06:20:46.922Z,12.04
2018-04-26T06:21:44.157Z,11.98
2018-04-26T06:22:44.137Z,11.98
2018-04-26T06:23:45.875Z,11.97
2018-04-26T06:24:46.186Z,11.93
2018-04-26T06:25:44.298Z,11.92
2018-04-26T06:26:44.701Z,11.84
2018-04-26T06:27:47.071Z,11.89
2018-04-26T06:28:45.498Z,11.87
2018-04-26T12:32:08.221Z,16.29
2018-04-26T12:33:08.667Z,16.42
2018-04-26T12:34:08.737Z,16.39
2018-04-26T12:35:08.599Z,16.5
2018-04-26T12:36:08.261Z,16.59
2018-04-26T12:37:08.224Z,16.68
2018-04-26T12:38:08.370Z,16.7
2018-04-26T12:39:08.303Z,16.71
2018-04-26T12:40:08.381Z,16.5
2018-04-26T12:41:08.218Z,16.36
2018-04-26T12:42:08.552Z,16.31
2018-04-26T12:43:08.237Z,16.25
2018-04-26T12:44:08.709Z,16.09
2018-04-26T12:45:08.435Z,16.28
2018-04-26T12:46:08.250Z,16.35
2018-04-26T12:47:08.251Z,16.43
2018-04-26T12:48:08.279Z,16.46
2018-04-26T12:49:08.250Z,16.35
2018-04-26T12:50:08.235Z,16.25
2018-04-26T12:51:08.238Z,16.16
2018-04-26T12:52:08.278Z,16.16
2018-04-26T12:53:08.295Z,16.07
2018-04-26T12:54:08.296Z,15.98
2018-04-26T12:55:08.224Z,16.01
2018-04-26T12:56:08.321Z,16.01
2018-04-26T12:57:08.242Z,16.08
2018-04-26T12:58:08.419Z,16.21
2018-04-26T12:59:08.261Z,16.26
2018-04-26T13:00:08.273Z,16.24
2018-04-26T13:01:08.428Z,16.26
2018-04-26T13:02:08.568Z,16.31
2018-04-26T13:03:08.260Z,16.33
2018-04-26T13:04:08.315Z,16.32
2018-04-26T13:05:08.273Z,16.22
2018-04-26T13:06:08.253Z,16.15
2018-04-26T13:07:08.465Z,16.11
2018-04-26T13:08:08.423Z,15.92
2018-04-26T13:09:08.280Z,15.9
2018-04-26T13:10:08.371Z,15.91
2018-04-26T13:11:08.268Z,15.88
2018-04-26T13:12:08.284Z,15.84
2018-04-26T13:13:08.383Z,15.91
2018-04-26T13:14:08.269Z,15.92
2018-04-26T13:15:08.289Z,15.97
2018-04-26T13:16:08.278Z,16.04
2018-04-26T13:17:08.440Z,15.97
2018-04-26T13:18:08.426Z,15.95
2018-04-26T13:19:08.348Z,16.07
2018-04-26T13:20:08.483Z,16.21
2018-04-26T13:21:08.776Z,16.33
2018-04-26T13:22:08.465Z,16.37
2018-04-26T13:23:08.285Z,16.53
2018-04-26T13:24:08.299Z,16.68
2018-04-26T13:25:08.317Z,16.71
2018-04-26T13:26:08.281Z,16.81
2018-04-26T13:27:08.782Z,16.92
2018-04-26T13:28:08.395Z,17.05
2018-04-26T13:29:08.295Z,17.14
2018-04-26T13:30:08.310Z,17.23
2018-04-26T13:31:08.475Z,17.27
2018-04-26T13:32:08.281Z,17.32
2018-04-26T13:33:08.361Z,17.27
2018-04-26T13:34:08.381Z,17.22
2018-04-26T13:35:08.280Z,17.16
2018-04-26T13:36:08.466Z,17.14
2018-04-26T13:47:49.580Z,16.73
2018-04-26T13:48:49.799Z,16.67
2018-04-26T13:49:49.819Z,16.64
2018-04-26T13:50:49.611Z,16.6
2018-04-26T13:51:49.631Z,16.66
2018-04-26T13:52:49.576Z,16.77
2018-04-26T13:53:49.590Z,16.9
2018-04-26T13:54:49.623Z,16.86
2018-04-26T13:55:49.969Z,16.91
2018-04-26T13:56:49.594Z,16.91
2018-04-26T13:57:49.593Z,16.8
2018-04-26T13:58:49.589Z,16.81
2018-04-26T13:59:49.605Z,16.59
2018-04-26T14:00:49.662Z,16.56
2018-04-26T14:01:49.607Z,16.54
2018-04-26T14:02:49.645Z,16.45
2018-04-26T14:03:49.600Z,16.47
2018-04-26T14:04:49.808Z,16.45
2018-04-26T14:05:49.749Z,16.46
2018-04-26T14:06:49.587Z,16.46
2018-04-26T14:07:49.616Z,16.39
2018-04-26T14:08:49.611Z,16.4
2018-04-26T14:09:49.655Z,16.47
2018-04-26T14:10:49.774Z,16.62
2018-04-26T14:11:49.636Z,16.74
2018-04-26T14:12:49.599Z,16.92
2018-04-26T14:13:49.606Z,17.01
2018-04-26T14:14:49.851Z,16.92
2018-04-26T14:15:49.864Z,16.84
2018-04-26T14:16:49.800Z,16.78
2018-04-26T14:17:49.633Z,16.73
2018-04-26T14:18:57.019Z,16.66
2018-04-26T14:19:49.812Z,16.67
2018-04-26T14:20:49.671Z,16.57
2018-04-26T14:21:49.644Z,16.56
2018-04-26T14:22:49.651Z,16.59
2018-04-26T14:23:49.666Z,16.45
2018-04-26T14:24:49.603Z,16.26
2018-04-26T14:25:49.741Z,16.22
2018-04-26T14:26:49.856Z,16.24
2018-04-26T14:27:49.617Z,16.22
2018-04-26T14:28:49.619Z,16.37
2018-04-26T14:29:50.006Z,16.37
2018-04-26T14:30:49.719Z,16.37
2018-04-26T14:31:49.748Z,16.36
2018-04-26T14:32:49.619Z,16.39
2018-04-26T14:33:49.726Z,16.49
2018-04-26T14:34:49.713Z,16.74
2018-04-26T14:35:49.664Z,16.97
2018-04-26T14:36:50.042Z,17.12
2018-04-26T14:37:49.661Z,17.32
2018-04-26T14:38:49.661Z,17.49
2018-04-26T14:39:49.635Z,17.56
2018-04-26T14:40:49.728Z,17.42
2018-04-26T14:41:49.680Z,17.27
2018-04-26T14:42:49.615Z,17.21
2018-04-26T14:43:49.632Z,17.07
2018-04-26T14:44:49.655Z,16.87
2018-04-26T14:45:49.939Z,16.9
2018-04-26T14:46:49.648Z,16.86
2018-04-26T14:47:49.627Z,16.78
2018-04-26T14:48:49.684Z,16.91
2018-04-26T14:49:50.140Z,16.97
2018-04-26T14:50:49.649Z,16.99
2018-04-26T14:51:49.660Z,17.01
2018-04-26T14:52:49.641Z,16.83
2018-04-26T14:53:49.743Z,16.9
2018-04-26T14:54:49.949Z,16.91
2018-04-26T14:55:49.651Z,16.97
2018-04-26T14:56:49.897Z,17.04
2018-04-26T14:57:49.646Z,17.01
2018-04-26T14:58:49.768Z,16.77
2018-04-26T14:59:49.987Z,16.52
2018-04-26T15:00:49.769Z,16.63
2018-04-26T15:01:49.692Z,16.83
2018-04-26T15:02:49.749Z,16.91
2018-04-26T15:03:49.640Z,16.73
2018-04-26T15:04:50.050Z,16.63
2018-04-26T15:05:49.683Z,16.5
2018-04-26T15:06:49.693Z,16.59
2018-04-26T15:07:49.740Z,16.68
2018-04-26T15:08:49.644Z,16.7
2018-04-26T15:09:49.753Z,16.67
2018-04-26T15:10:49.712Z,16.64
2018-04-26T15:11:49.681Z,16.59
2018-04-26T15:12:49.702Z,16.63
2018-04-26T15:13:49.672Z,16.71
2018-04-26T15:14:49.669Z,16.84
2018-04-26T15:15:49.637Z,16.9
2018-04-26T15:16:49.904Z,16.87
2018-04-26T15:17:49.645Z,16.94
2018-04-26T15:18:49.741Z,17.09
2018-04-26T15:19:49.849Z,17.09
2018-04-26T15:20:49.762Z,17.02
2018-04-26T15:21:49.727Z,16.98
2018-04-26T15:22:49.674Z,17.12
2018-04-26T15:23:49.763Z,17.18
2018-04-26T15:24:49.977Z,17.11
2018-04-26T15:25:49.667Z,17.33
2018-04-26T15:26:49.954Z,17.35
2018-04-26T15:27:49.663Z,17.29
2018-04-26T15:28:49.698Z,16.92
2018-04-26T15:29:50.028Z,16.98
2018-04-26T15:30:49.793Z,17.02
2018-04-26T15:31:50.062Z,16.95
2018-04-26T15:32:49.760Z,17.09
2018-04-26T15:33:49.947Z,17.12
2018-04-26T15:34:49.725Z,17.15
2018-04-26T15:35:50.535Z,17.11
2018-04-26T15:36:49.723Z,16.91
2018-04-26T15:37:49.673Z,16.7
2018-04-26T15:38:49.922Z,16.75
2018-04-26T15:39:49.660Z,16.86
2018-04-26T15:40:49.695Z,16.78
2018-04-26T15:41:49.831Z,16.77
2018-04-26T15:42:49.751Z,16.75
2018-04-26T15:43:49.682Z,16.64
2018-04-26T15:44:49.685Z,16.67
2018-04-26T15:45:50.211Z,16.73
2018-04-26T15:46:50.005Z,16.86
2018-04-26T15:47:49.762Z,16.87
2018-04-26T15:48:49.697Z,16.94
2018-04-26T15:49:49.829Z,17.07
2018-04-26T15:50:49.684Z,17.19
2018-04-26T15:51:50.073Z,17.14
2018-04-26T15:52:49.767Z,17.21
2018-04-26T15:53:49.746Z,17.36
2018-04-26T15:54:49.735Z,17.53
2018-04-26T15:55:49.692Z,17.57
2018-04-26T15:56:49.675Z,17.64
2018-04-26T15:57:49.700Z,17.66
2018-04-26T15:58:49.708Z,17.58
2018-04-26T15:59:49.641Z,17.49
2018-04-26T16:00:49.680Z,17.47
2018-04-26T16:01:50.140Z,17.49
2018-04-26T16:02:50.106Z,17.57
2018-04-26T16:03:49.708Z,17.66
2018-04-26T16:04:49.804Z,17.7
2018-04-26T16:05:49.930Z,17.61
2018-04-26T16:06:49.833Z,17.57
2018-04-26T16:07:49.709Z,17.53
2018-04-26T16:08:49.806Z,17.46
2018-04-26T16:09:49.659Z,17.5
2018-04-26T16:10:49.736Z,17.36
2018-04-26T16:11:49.769Z,17.09
2018-04-26T16:12:50.577Z,17.14
2018-04-26T16:13:50.035Z,17.22
2018-04-26T16:14:49.792Z,17.01
2018-04-26T16:15:49.669Z,17.04
2018-04-26T16:16:49.934Z,16.88
2018-04-26T16:17:50.103Z,16.97
2018-04-26T16:18:49.714Z,17.16
2018-04-26T16:19:49.924Z,17.3
2018-04-26T16:20:49.796Z,17.15
2018-04-26T16:21:49.832Z,17.25
2018-04-26T16:22:49.681Z,17.42
2018-04-26T16:23:50.221Z,17.52
2018-04-26T16:24:50.089Z,17.7
2018-04-26T16:25:49.763Z,17.69
2018-04-26T16:26:49.704Z,17.54
2018-04-26T16:27:49.849Z,17.53
2018-04-26T16:28:49.728Z,17.43
2018-04-26T16:29:49.696Z,17.4
2018-04-26T16:30:50.000Z,17.4
2018-04-26T16:31:50.015Z,17.35
2018-04-26T16:32:50.155Z,17.26
2018-04-26T16:33:50.129Z,17.27
2018-04-26T16:34:49.831Z,17.19
2018-04-26T16:35:49.798Z,16.97
2018-04-26T16:36:49.949Z,16.98
2018-04-26T16:37:49.717Z,16.8
2018-04-26T16:38:50.259Z,16.83
2018-04-26T16:39:49.775Z,16.81
2018-04-26T16:40:49.719Z,16.83
2018-04-26T16:41:49.749Z,16.86
2018-04-26T16:42:50.017Z,16.83
2018-04-26T16:43:50.158Z,16.81
2018-04-26T16:44:49.764Z,16.87
2018-04-26T16:45:49.727Z,16.64
2018-04-26T16:46:49.780Z,16.67
2018-04-26T16:47:49.773Z,16.73
2018-04-26T16:48:49.722Z,16.66
2018-04-26T16:49:49.925Z,16.64
2018-04-26T16:50:49.927Z,16.73
2018-04-26T16:51:49.806Z,16.78
2018-04-26T16:52:49.722Z,16.75
2018-04-26T16:53:49.830Z,16.73
2018-04-26T16:54:49.824Z,16.77
2018-04-26T16:55:50.294Z,16.81
2018-04-26T16:56:49.835Z,16.75
2018-04-26T16:57:49.761Z,16.81
2018-04-26T16:58:49.817Z,16.84
2018-04-26T16:59:50.249Z,16.91
2018-04-26T17:00:49.903Z,16.84
2018-04-26T17:01:49.879Z,16.84
2018-04-26T17:02:50.122Z,16.84
2018-04-26T17:03:49.835Z,16.75
2018-04-26T17:04:50.840Z,16.67
2018-04-26T17:05:50.141Z,16.49
2018-04-26T17:06:49.776Z,16.46
2018-04-26T17:07:49.779Z,16.47
2018-04-26T17:08:49.734Z,16.56
2018-04-26T17:09:49.777Z,16.54
2018-04-26T17:10:49.807Z,16.5
2018-04-26T17:11:50.209Z,16.56
2018-04-26T17:12:49.768Z,16.62
2018-04-26T17:13:50.291Z,16.62
2018-04-26T17:14:49.778Z,16.64
2018-04-26T17:15:50.319Z,16.57
2018-04-26T17:16:50.321Z,16.56
2018-04-26T17:17:49.726Z,16.5
2018-04-26T17:18:50.119Z,16.52
2018-04-26T17:19:49.778Z,16.52
2018-04-26T17:20:49.978Z,16.46
2018-04-26T17:21:52.761Z,16.39
2018-04-26T17:22:49.880Z,16.36
2018-04-26T17:23:49.798Z,16.36
2018-04-26T17:24:50.068Z,16.33
2018-04-26T17:25:50.280Z,16.35
2018-04-26T17:26:49.963Z,16.32
2018-04-26T17:27:50.026Z,16.32
2018-04-26T17:28:49.776Z,16.21
2018-04-26T17:29:50.077Z,16.15
2018-04-26T17:30:50.312Z,16.09
2018-04-26T17:31:49.842Z,16.07
2018-04-26T17:32:49.803Z,16.04
2018-04-26T17:33:49.725Z,16.05
2018-04-26T17:34:50.615Z,16.05
2018-04-26T17:35:49.991Z,15.98
2018-04-26T17:36:49.845Z,15.98
2018-04-26T17:40:15.400Z,15.81
2018-04-26T17:41:15.050Z,15.78
2018-04-26T17:42:15.426Z,15.8
2018-04-26T17:43:15.212Z,15.9
2018-04-26T17:44:15.002Z,15.91
2018-04-26T17:45:15.014Z,15.94
2018-04-26T17:46:15.713Z,15.95
2018-04-26T17:47:15.300Z,15.88
2018-04-26T17:48:16.264Z,15.92
2018-04-26T17:49:15.160Z,15.84
2018-04-26T17:50:15.003Z,15.85
2018-04-26T17:51:15.200Z,15.66
2018-04-26T17:52:15.356Z,15.7
2018-04-26T17:53:15.152Z,15.7
2018-04-26T17:54:15.078Z,15.76
2018-04-26T17:55:14.987Z,15.67
2018-04-26T17:56:15.132Z,15.66
2018-04-26T17:57:15.166Z,15.74
2018-04-26T17:58:15.351Z,15.77
2018-04-26T17:59:14.984Z,15.78
2018-04-26T18:00:15.400Z,15.84
2018-04-26T18:01:15.326Z,15.78
2018-04-26T18:02:15.245Z,15.77
2018-04-26T18:03:15.022Z,15.81
2018-04-26T18:04:14.975Z,15.82
2018-04-26T18:05:15.034Z,15.81
2018-04-26T18:06:15.218Z,15.8
2018-04-26T18:07:15.162Z,15.85
2018-04-26T18:08:15.135Z,15.84
2018-04-26T18:09:15.244Z,15.82
2018-04-26T18:10:14.983Z,15.85
2018-04-26T18:11:15.295Z,15.88
2018-04-26T18:12:15.165Z,15.88
2018-04-26T18:13:15.090Z,15.87
2018-04-26T18:14:15.369Z,15.91
2018-04-26T18:15:15.808Z,15.9
2018-04-26T18:16:15.112Z,15.92
2018-04-26T18:17:14.999Z,15.9
2018-04-26T18:18:15.268Z,15.88
2018-04-26T18:19:15.090Z,15.87
2018-04-26T18:20:16.658Z,15.85
2018-04-26T18:21:15.325Z,15.87
2018-04-26T18:22:15.057Z,15.85
2018-04-26T18:23:15.362Z,15.87
2018-04-26T18:24:15.003Z,15.87
2018-04-26T18:25:15.414Z,15.88
2018-04-26T18:26:15.311Z,15.92
2018-04-26T18:27:15.704Z,15.92
2018-04-26T18:28:14.986Z,15.94
2018-04-26T18:29:14.995Z,15.97
2018-04-26T18:30:15.077Z,15.97
2018-04-26T18:31:15.398Z,15.97
2018-04-26T18:32:15.858Z,15.95
2018-04-26T18:33:15.043Z,15.97
2018-04-26T18:34:17.229Z,15.95
2018-04-26T18:35:15.269Z,15.95
2018-04-26T18:36:16.148Z,15.94
2018-04-26T18:37:14.990Z,15.91
2018-04-26T18:38:15.244Z,15.9
2018-04-26T18:39:15.349Z,15.9
2018-04-26T18:40:15.197Z,15.82
2018-04-26T18:41:15.199Z,15.82
2018-04-26T18:42:15.165Z,15.84
2018-04-26T18:43:15.397Z,15.82
2018-04-26T18:44:15.010Z,15.82
2018-04-26T18:45:15.203Z,15.81
2018-04-26T18:46:15.159Z,15.8
2018-04-26T18:47:15.250Z,15.8
2018-04-26T18:48:15.056Z,15.77
2018-04-26T18:49:15.173Z,15.76
2018-04-26T18:50:15.199Z,15.77
2018-04-26T18:51:15.209Z,15.66
2018-04-26T18:52:15.573Z,15.66
2018-04-26T18:53:16.490Z,15.63
2018-04-26T18:54:15.011Z,15.59
2018-04-26T18:55:15.015Z,15.59
2018-04-26T18:56:15.387Z,15.54
2018-04-26T18:57:15.683Z,15.53
2018-04-26T18:58:15.895Z,15.5
2018-04-26T18:59:15.154Z,15.47
2018-04-26T19:00:14.981Z,15.45
2018-04-26T19:01:15.410Z,15.39
2018-04-26T19:02:14.973Z,15.36
2018-04-26T19:03:15.315Z,15.35
2018-04-26T19:04:15.039Z,15.31
2018-04-26T19:05:15.076Z,15.29
2018-04-26T19:06:15.011Z,15.29
2018-04-26T19:07:15.093Z,15.23
2018-04-26T19:08:15.245Z,15.19
2018-04-26T19:09:14.983Z,15.17
2018-04-26T19:10:15.276Z,15.15
2018-04-26T19:11:15.078Z,15.11